Time,TemperatureF,DewpointF,PressureIn,WindDirection,WindDirectionDegrees,WindSpeedMPH,WindSpeedGustMPH,Humidity,HourlyPrecipIn,Conditions,Clouds,dailyrainin,SoftwareType,DateUTC
2013-06-21 00:02:00,61.1,56.0,30.27,ENE,65,0.0,1.0,83,0.00,,,0.00,weatherlink.com 1.10,2013-06-21 04:02:00,
2013-06-21 00:17:00,60.9,56.0,30.27,ENE,65,0.0,2.0,84,0.00,,,0.00,weatherlink.com 1.10,2013-06-21 04:17:00,
2013-06-21 00:32:00,60.5,56.0,30.28,ENE,65,2.0,2.0,84,0.00,,,0.00,weatherlink.com 1.10,2013-06-21 04:32:00,
2013-06-21 00:47:00,60.9,56.0,30.27,ENE,65,0.0,2.0,83,0.00,,,0.00,weatherlink.com 1.10,2013-06-21 04:47:00,
2013-06-21 01:02:00,61.0,56.0,30.27,ENE,65,0.0,2.0,83,0.00,,,0.00,weatherlink.com 1.10,2013-06-21 05:02:00,
2013-06-21 01:17:00,60.9,56.0,30.27,ENE,65,0.0,2.0,83,0.00,,,0.00,weatherlink.com 1.10,2013-06-21 05:17:00,
2013-06-21 01:32:00,60.5,56.0,30.27,ENE,65,0.0,0.0,84,0.00,,,0.00,weatherlink.com 1.10,2013-06-21 05:32:00,
2013-06-21 01:47:00,59.9,56.0,30.26,ENE,65,0.0,1.0,86,0.00,,,0.00,weatherlink.com 1.10,2013-06-21 05:47:00,
2013-06-21 02:02:00,59.4,56.0,30.26,ENE,65,0.0,1.0,87,0.00,,,0.00,weatherlink.com 1.10,2013-06-21 06:02:00,
2013-06-21 02:17:00,59.3,56.0,30.27,East,83,1.0,4.0,88,0.00,,,0.00,weatherlink.com 1.10,2013-06-21 06:17:00,
2013-06-21 02:32:00,60.3,56.0,30.27,NNE,15,0.0,3.0,86,0.00,,,0.00,weatherlink.com 1.10,2013-06-21 06:32:00,
2013-06-21 02:47:00,60.8,56.0,30.26,WSW,240,1.0,4.0,85,0.00,,,0.00,weatherlink.com 1.10,2013-06-21 06:47:00,
2013-06-21 03:02:00,61.2,56.0,30.26,North,9,1.0,3.0,82,0.00,,,0.00,weatherlink.com 1.10,2013-06-21 07:02:00,
2013-06-21 03:17:00,61.9,56.0,30.26,WNW,295,4.0,4.0,80,0.00,,,0.00,weatherlink.com 1.10,2013-06-21 07:17:00,
2013-06-21 03:32:00,61.8,56.0,30.26,SSW,206,0.0,5.0,80,0.00,,,0.00,weatherlink.com 1.10,2013-06-21 07:32:00,
2013-06-21 03:47:00,61.6,55.0,30.27,NE,51,0.0,5.0,80,0.00,,,0.00,weatherlink.com 1.10,2013-06-21 07:47:00,
2013-06-21 04:17:00,61.2,55.0,30.27,WSW,244,0.0,8.0,80,0.00,,,0.00,weatherlink.com 1.10,2013-06-21 08:17:00,
2013-06-21 04:32:00,61.2,55.0,30.26,NNE,13,0.0,2.0,80,0.00,,,0.00,weatherlink.com 1.10,2013-06-21 08:32:00,
2013-06-21 04:47:00,61.1,55.0,30.26,NW,319,1.0,4.0,79,0.00,,,0.00,weatherlink.com 1.10,2013-06-21 08:47:00,
2013-06-21 05:02:00,61.4,55.0,30.27,WSW,244,1.0,8.0,78,0.00,,,0.00,weatherlink.com 1.10,2013-06-21 09:02:00,
2013-06-21 05:17:00,61.7,55.0,30.27,South,187,0.0,7.0,78,0.00,,,0.00,weatherlink.com 1.10,2013-06-21 09:17:00,
2013-06-21 05:33:00,61.6,55.0,30.27,ENE,73,1.0,3.0,78,0.00,,,0.00,weatherlink.com 1.10,2013-06-21 09:33:00,
2013-06-21 05:48:00,61.0,55.0,30.28,ENE,73,0.0,2.0,80,0.00,,,0.00,weatherlink.com 1.10,2013-06-21 09:48:00,
2013-06-21 06:03:00,60.8,55.0,30.28,ENE,73,0.0,2.0,80,0.00,,,0.00,weatherlink.com 1.10,2013-06-21 10:03:00,
2013-06-21 06:18:00,60.8,55.0,30.28,ENE,71,0.0,2.0,81,0.00,,,0.00,weatherlink.com 1.10,2013-06-21 10:18:00,
2013-06-21 06:33:00,61.2,55.0,30.28,East,91,1.0,4.0,79,0.00,,,0.00,weatherlink.com 1.10,2013-06-21 10:33:00,
2013-06-21 06:48:00,61.2,55.0,30.29,East,85,0.0,3.0,79,0.00,,,0.00,weatherlink.com 1.10,2013-06-21 10:48:00,
2013-06-21 07:03:00,61.3,55.0,30.29,East,79,0.0,2.0,81,0.00,,,0.00,weatherlink.com 1.10,2013-06-21 11:03:00,
2013-06-21 07:18:00,61.5,55.0,30.28,SE,130,0.0,4.0,80,0.00,,,0.00,weatherlink.com 1.10,2013-06-21 11:18:00,
2013-06-21 07:33:00,62.0,56.0,30.28,East,93,1.0,4.0,80,0.00,,,0.00,weatherlink.com 1.10,2013-06-21 11:33:00,
2013-06-21 07:48:00,62.7,56.0,30.28,NE,45,0.0,4.0,80,0.00,,,0.00,weatherlink.com 1.10,2013-06-21 11:48:00,
2013-06-21 08:03:00,63.4,57.0,30.28,NE,45,1.0,2.0,80,0.00,,,0.00,weatherlink.com 1.10,2013-06-21 12:03:00,
2013-06-21 08:18:00,64.2,58.0,30.28,East,101,0.0,2.0,79,0.00,,,0.00,weatherlink.com 1.10,2013-06-21 12:18:00,
2013-06-21 08:33:00,64.8,58.0,30.28,SSE,153,0.0,2.0,79,0.00,,,0.00,weatherlink.com 1.10,2013-06-21 12:33:00,
2013-06-21 08:48:00,65.6,59.0,30.28,West,265,0.0,1.0,79,0.00,,,0.00,weatherlink.com 1.10,2013-06-21 12:48:00,
2013-06-21 09:03:00,66.1,60.0,30.28,West,265,0.0,1.0,80,0.00,,,0.00,weatherlink.com 1.10,2013-06-21 13:03:00,
2013-06-21 09:18:00,67.0,60.0,30.28,West,265,0.0,2.0,79,0.00,,,0.00,weatherlink.com 1.10,2013-06-21 13:18:00,
2013-06-21 09:33:00,67.7,61.0,30.28,West,265,0.0,2.0,78,0.00,,,0.00,weatherlink.com 1.10,2013-06-21 13:33:00,
2013-06-21 09:48:00,68.7,61.0,30.28,WNW,302,2.0,3.0,76,0.00,,,0.00,weatherlink.com 1.10,2013-06-21 13:48:00,
2013-06-21 10:03:00,70.5,62.0,30.28,SW,225,0.0,4.0,75,0.00,,,0.00,weatherlink.com 1.10,2013-06-21 14:03:00,
2013-06-21 10:18:00,71.1,61.0,30.27,East,90,1.0,2.0,71,0.00,,,0.00,weatherlink.com 1.10,2013-06-21 14:18:00,
2013-06-21 10:33:00,71.9,62.0,30.27,SE,140,0.0,5.0,70,0.00,,,0.00,weatherlink.com 1.10,2013-06-21 14:33:00,
2013-06-21 10:48:00,73.0,63.0,30.27,West,269,1.0,3.0,72,0.00,,,0.00,weatherlink.com 1.10,2013-06-21 14:48:00,
2013-06-21 11:03:00,73.9,64.0,30.28,East,98,0.0,3.0,70,0.00,,,0.00,weatherlink.com 1.10,2013-06-21 15:03:00,
2013-06-21 11:18:00,74.9,64.0,30.28,SW,221,0.0,4.0,69,0.00,,,0.00,weatherlink.com 1.10,2013-06-21 15:18:00,
2013-06-21 11:33:00,75.2,64.0,30.28,WSW,252,3.0,6.0,68,0.00,,,0.00,weatherlink.com 1.10,2013-06-21 15:33:00,
2013-06-21 11:48:00,75.6,64.0,30.28,NNE,24,0.0,2.0,67,0.00,,,0.00,weatherlink.com 1.10,2013-06-21 15:48:00,
2013-06-21 12:03:00,76.5,65.0,30.27,WNW,287,0.0,3.0,68,0.00,,,0.00,weatherlink.com 1.10,2013-06-21 16:03:00,
2013-06-21 12:18:00,77.6,67.0,30.27,WSW,237,5.0,6.0,69,0.00,,,0.00,weatherlink.com 1.10,2013-06-21 16:18:00,
2013-06-21 12:33:00,77.3,65.0,30.27,WNW,290,2.0,9.0,66,0.00,,,0.00,weatherlink.com 1.10,2013-06-21 16:33:00,
2013-06-21 12:48:00,77.7,65.0,30.27,WSW,250,1.0,7.0,66,0.00,,,0.00,weatherlink.com 1.10,2013-06-21 16:48:00,
2013-06-21 13:04:00,78.5,65.0,30.27,NNW,348,3.0,6.0,64,0.00,,,0.00,weatherlink.com 1.10,2013-06-21 17:04:00,
2013-06-21 13:19:00,78.5,66.0,30.27,East,98,1.0,7.0,66,0.00,,,0.00,weatherlink.com 1.10,2013-06-21 17:19:00,
2013-06-21 13:49:00,77.8,66.0,30.25,WSW,256,3.0,8.0,66,0.00,,,0.00,weatherlink.com 1.10,2013-06-21 17:49:00,
2013-06-21 14:04:00,78.5,66.0,30.25,WSW,253,1.0,9.0,65,0.00,,,0.00,weatherlink.com 1.10,2013-06-21 18:04:00,
2013-06-21 14:19:00,79.0,64.0,30.25,WNW,301,3.0,9.0,60,0.00,,,0.00,weatherlink.com 1.10,2013-06-21 18:19:00,
2013-06-21 14:34:00,78.3,66.0,30.25,WSW,242,4.0,5.0,65,0.00,,,0.00,weatherlink.com 1.10,2013-06-21 18:34:00,
2013-06-21 14:49:00,78.3,64.0,30.24,SSW,212,2.0,8.0,62,0.00,,,0.00,weatherlink.com 1.10,2013-06-21 18:49:00,
2013-06-21 15:04:00,78.3,66.0,30.24,West,277,0.0,5.0,65,0.00,,,0.00,weatherlink.com 1.10,2013-06-21 19:04:00,
2013-06-21 15:19:00,78.0,64.0,30.24,ESE,103,0.0,7.0,63,0.00,,,0.00,weatherlink.com 1.10,2013-06-21 19:19:00,
2013-06-21 15:34:00,78.5,64.0,30.23,NNW,341,2.0,8.0,62,0.00,,,0.00,weatherlink.com 1.10,2013-06-21 19:34:00,
2013-06-21 15:49:00,79.3,66.0,30.23,SW,235,0.0,7.0,63,0.00,,,0.00,weatherlink.com 1.10,2013-06-21 19:49:00,
2013-06-21 16:04:00,79.4,63.0,30.23,West,273,1.0,8.0,57,0.00,,,0.00,weatherlink.com 1.10,2013-06-21 20:04:00,
2013-06-21 16:19:00,79.4,64.0,30.23,NW,312,1.0,4.0,59,0.00,,,0.00,weatherlink.com 1.10,2013-06-21 20:19:00,
2013-06-21 16:34:00,78.6,63.0,30.23,NW,306,0.0,5.0,59,0.00,,,0.00,weatherlink.com 1.10,2013-06-21 20:34:00,
2013-06-21 17:04:00,80.0,65.0,30.22,NE,55,2.0,7.0,60,0.00,,,0.00,weatherlink.com 1.10,2013-06-21 21:04:00,
2013-06-21 17:19:00,79.9,64.0,30.22,WNW,284,0.0,4.0,58,0.00,,,0.00,weatherlink.com 1.10,2013-06-21 21:19:00,
2013-06-21 17:34:00,79.5,66.0,30.21,SW,233,3.0,3.0,64,0.00,,,0.00,weatherlink.com 1.10,2013-06-21 21:34:00,
2013-06-21 17:49:00,80.1,64.0,30.21,SW,225,3.0,8.0,59,0.00,,,0.00,weatherlink.com 1.10,2013-06-21 21:49:00,
2013-06-21 18:04:00,80.7,64.0,30.22,SW,230,1.0,4.0,57,0.00,,,0.00,weatherlink.com 1.10,2013-06-21 22:04:00,
2013-06-21 18:19:00,79.9,64.0,30.22,SW,236,1.0,4.0,58,0.00,,,0.00,weatherlink.com 1.10,2013-06-21 22:19:00,
2013-06-21 18:34:00,79.8,66.0,30.22,WSW,249,2.0,3.0,63,0.00,,,0.00,weatherlink.com 1.10,2013-06-21 22:34:00,
2013-06-21 18:49:00,79.4,66.0,30.22,WSW,247,0.0,3.0,64,0.00,,,0.00,weatherlink.com 1.10,2013-06-21 22:49:00,
2013-06-21 19:04:00,77.9,64.0,30.23,WSW,256,2.0,7.0,62,0.00,,,0.00,weatherlink.com 1.10,2013-06-21 23:04:00,
2013-06-21 19:34:00,76.0,65.0,30.23,WSW,253,0.0,2.0,69,0.00,,,0.00,weatherlink.com 1.10,2013-06-21 23:34:00,
2013-06-21 19:49:00,74.9,64.0,30.23,SW,226,2.0,3.0,68,0.00,,,0.00,weatherlink.com 1.10,2013-06-21 23:49:00,
2013-06-21 20:04:00,73.8,63.0,30.23,WNW,286,1.0,9.0,68,0.00,,,0.00,weatherlink.com 1.10,2013-06-22 00:04:00,
2013-06-21 20:19:00,73.0,62.0,30.23,West,267,0.0,4.0,68,0.00,,,0.00,weatherlink.com 1.10,2013-06-22 00:19:00,
2013-06-21 20:34:00,72.3,60.0,30.23,West,261,1.0,6.0,65,0.00,,,0.00,weatherlink.com 1.10,2013-06-22 00:34:00,
2013-06-21 20:49:00,71.5,60.0,30.23,NNW,338,1.0,3.0,67,0.00,,,0.00,weatherlink.com 1.10,2013-06-22 00:49:00,
2013-06-21 21:04:00,70.7,60.0,30.23,WSW,254,0.0,3.0,68,0.00,,,0.00,weatherlink.com 1.10,2013-06-22 01:04:00,
2013-06-21 21:19:00,70.1,60.0,30.24,WSW,254,0.0,2.0,70,0.00,,,0.00,weatherlink.com 1.10,2013-06-22 01:19:00,
2013-06-21 21:34:00,69.3,60.0,30.24,WSW,254,0.0,1.0,71,0.00,,,0.00,weatherlink.com 1.10,2013-06-22 01:34:00,
2013-06-21 21:49:00,68.4,59.0,30.25,WSW,254,0.0,0.0,73,0.00,,,0.00,weatherlink.com 1.10,2013-06-22 01:49:00,
2013-06-21 22:04:00,67.8,59.0,30.25,WSW,254,0.0,1.0,74,0.00,,,0.00,weatherlink.com 1.10,2013-06-22 02:04:00,
2013-06-21 22:19:00,67.2,58.0,30.25,WSW,254,0.0,1.0,73,0.00,,,0.00,weatherlink.com 1.10,2013-06-22 02:19:00,
2013-06-21 22:34:00,66.7,59.0,30.25,WSW,254,0.0,2.0,76,0.00,,,0.00,weatherlink.com 1.10,2013-06-22 02:34:00,
2013-06-21 22:49:00,66.4,58.0,30.25,WSW,254,0.0,1.0,75,0.00,,,0.00,weatherlink.com 1.10,2013-06-22 02:49:00,
2013-06-21 23:04:00,66.1,58.0,30.25,WSW,254,0.0,1.0,75,0.00,,,0.00,weatherlink.com 1.10,2013-06-22 03:04:00,
2013-06-21 23:19:00,65.7,58.0,30.25,WSW,254,1.0,2.0,76,0.00,,,0.00,weatherlink.com 1.10,2013-06-22 03:19:00,
2013-06-21 23:34:00,65.3,58.0,30.25,WSW,254,0.0,2.0,76,0.00,,,0.00,weatherlink.com 1.10,2013-06-22 03:34:00,
2013-06-21 23:49:00,64.8,58.0,30.24,WSW,254,0.0,0.0,78,0.00,,,0.00,weatherlink.com 1.10,2013-06-22 03:49:00,